createdAt,value
2023-05-10T00:03:43.004Z,1.40
2023-05-10T00:08:48.383Z,0.70
2023-05-10T00:18:54.910Z,0.88
2023-05-10T00:24:00.181Z,1.10
2023-05-10T00:29:03.807Z,0.73
2023-05-10T00:34:07.444Z,0.77
2023-05-10T00:39:12.666Z,0.80
2023-05-10T00:44:16.259Z,0.70
2023-05-10T00:49:20.740Z,0.90
2023-05-10T00:54:26.446Z,0.77
2023-05-10T00:59:31.651Z,0.82
2023-05-10T01:04:36.706Z,0.85
2023-05-10T01:09:42.913Z,0.75
2023-05-10T01:14:46.922Z,0.98
2023-05-10T01:19:51.091Z,0.60
2023-05-10T01:25:21.674Z,0.90
2023-05-10T01:30:53.329Z,0.77
2023-05-10T01:36:05.239Z,0.68
2023-05-10T01:41:19.087Z,0.63
2023-05-10T01:46:30.498Z,0.95
2023-05-10T01:51:41.808Z,0.80
2023-05-10T01:56:47.151Z,0.82
2023-05-10T02:01:52.977Z,0.57
2023-05-10T02:06:59.355Z,0.50
2023-05-10T02:12:05.776Z,0.60
2023-05-10T02:17:10.632Z,0.70
2023-05-10T02:22:19.925Z,0.50
2023-05-10T02:27:25.080Z,0.55
2023-05-10T02:32:30.808Z,0.52
2023-05-10T02:37:37.565Z,0.60
2023-05-10T02:42:44.113Z,0.70
2023-05-10T02:47:47.764Z,0.73
2023-05-10T02:52:56.059Z,0.70
2023-05-10T02:58:01.806Z,0.80
2023-05-10T03:08:10.234Z,1.08
2023-05-10T03:13:27.931Z,1.10
2023-05-10T03:18:38.772Z,0.80
2023-05-10T03:23:47.831Z,0.80
2023-05-10T03:28:53.198Z,1.00
2023-05-10T03:33:56.844Z,1.27
2023-05-10T03:39:02.174Z,1.00
2023-05-10T03:44:06.118Z,0.88
2023-05-10T03:49:09.757Z,1.60
2023-05-10T03:54:15.477Z,1.25
2023-05-10T03:59:19.080Z,1.00
2023-05-10T04:04:22.704Z,1.55
2023-05-10T04:09:27.936Z,1.17
2023-05-10T04:14:31.545Z,0.93
2023-05-10T04:19:35.286Z,0.65
2023-05-10T04:24:41.523Z,1.13
2023-05-10T04:29:45.142Z,1.27
2023-05-10T04:34:48.744Z,1.05
2023-05-10T04:39:54.017Z,1.08
2023-05-10T04:44:58.328Z,0.83
2023-05-10T04:50:02.064Z,0.93
2023-05-10T04:55:08.011Z,1.08
2023-05-10T05:05:15.465Z,1.13
2023-05-10T05:10:21.609Z,0.98
2023-05-10T05:15:25.256Z,0.68
2023-05-10T05:20:28.827Z,0.90
2023-05-10T05:25:35.103Z,0.77
2023-05-10T05:30:38.727Z,0.80
2023-05-10T05:35:42.337Z,1.20
2023-05-10T05:40:47.579Z,1.00
2023-05-10T05:45:51.188Z,0.90
2023-05-10T05:50:57.169Z,0.77
2023-05-10T06:01:05.262Z,1.10
2023-05-10T06:06:09.446Z,0.98
2023-05-10T06:11:14.746Z,1.23
2023-05-10T06:16:18.398Z,1.03
2023-05-10T06:21:22.078Z,1.30
2023-05-10T06:26:28.318Z,1.15
2023-05-10T06:31:31.934Z,0.90
2023-05-10T06:36:35.532Z,1.05
2023-05-10T06:41:40.794Z,1.17
2023-05-10T06:46:44.538Z,1.30
2023-05-10T06:51:48.312Z,1.20
2023-05-10T06:56:53.598Z,1.50
2023-05-10T07:01:57.251Z,1.30
2023-05-10T07:07:00.848Z,1.33
2023-05-10T07:12:07.871Z,1.30
2023-05-10T07:17:12.555Z,1.55
2023-05-10T07:22:16.633Z,1.50
2023-05-10T07:27:21.890Z,1.38
2023-05-10T07:32:25.696Z,1.53
2023-05-10T07:37:29.415Z,1.45
2023-05-10T07:42:34.688Z,1.35
2023-05-10T07:47:38.321Z,1.70
2023-05-10T07:52:41.963Z,1.30
2023-05-10T07:57:47.338Z,1.92
2023-05-10T08:02:51.101Z,1.50
2023-05-10T08:07:54.764Z,1.35
2023-05-10T08:13:00.031Z,1.73
2023-05-10T08:18:03.657Z,1.57
2023-05-10T08:23:07.359Z,1.30
2023-05-10T08:28:12.588Z,1.30
2023-05-10T08:33:16.281Z,1.23
2023-05-10T08:38:20.294Z,1.55
2023-05-10T08:43:29.208Z,1.50
2023-05-10T08:48:35.014Z,1.95
2023-05-10T08:53:39.154Z,1.85
2023-05-10T08:58:44.660Z,1.52
2023-05-10T09:03:49.473Z,1.55
2023-05-10T09:08:53.853Z,1.83
2023-05-10T09:13:59.196Z,1.58
2023-05-10T09:19:02.853Z,1.90
2023-05-10T09:24:07.255Z,2.00
2023-05-10T09:29:13.762Z,1.90
2023-05-10T09:34:19.604Z,1.88
2023-05-10T09:39:31.461Z,1.67
2023-05-10T09:44:37.373Z,1.30
2023-05-10T09:49:41.000Z,1.52
2023-05-10T09:54:54.181Z,1.67
2023-05-10T10:00:02.035Z,1.70
2023-05-10T10:05:08.177Z,1.80
2023-05-10T10:10:12.226Z,2.20
2023-05-10T10:15:18.489Z,2.05
2023-05-10T10:20:24.093Z,2.42
2023-05-10T10:25:27.869Z,2.23
2023-05-10T10:30:41.390Z,2.55
2023-05-10T10:35:47.010Z,2.40
2023-05-10T10:41:03.316Z,2.40
2023-05-10T10:46:16.397Z,2.40
2023-05-10T10:51:20.141Z,2.38
2023-05-10T10:56:24.698Z,2.30
2023-05-10T11:01:35.875Z,2.20
2023-05-10T11:06:39.622Z,2.30
2023-05-10T11:12:00.412Z,2.40
2023-05-10T11:17:25.417Z,2.40
2023-05-10T11:22:29.132Z,2.55
2023-05-10T11:27:32.804Z,2.05
2023-05-10T11:32:39.563Z,2.20
2023-05-10T11:37:44.038Z,2.38
2023-05-10T11:42:47.961Z,1.98
2023-05-10T11:47:53.383Z,2.15
2023-05-10T11:52:58.190Z,2.20
2023-05-10T11:58:04.205Z,2.20
2023-05-10T12:03:09.830Z,2.13
2023-05-10T12:08:14.204Z,2.38
2023-05-10T12:13:18.539Z,1.80
2023-05-10T12:18:25.905Z,1.90
2023-05-10T12:23:29.533Z,2.00
2023-05-10T12:28:34.022Z,1.90
2023-05-10T12:33:44.296Z,1.95
2023-05-10T12:38:48.136Z,2.25
2023-05-10T12:43:53.039Z,2.08
2023-05-10T12:49:07.808Z,1.80
2023-05-10T12:54:12.881Z,2.00
2023-05-10T12:59:16.468Z,1.73
2023-05-10T13:04:21.747Z,1.70
2023-05-10T13:09:25.430Z,1.80
2023-05-10T13:14:29.136Z,1.70
2023-05-10T13:19:34.336Z,2.50
2023-05-10T13:24:37.955Z,1.77
2023-05-10T13:29:42.536Z,1.45
2023-05-10T13:34:49.669Z,1.70
2023-05-10T13:39:53.297Z,1.93
2023-05-10T13:44:56.892Z,2.00
2023-05-10T13:50:02.187Z,1.77
2023-05-10T13:55:06.503Z,1.97
2023-05-10T14:00:11.130Z,1.95
2023-05-10T14:05:17.140Z,1.77
2023-05-10T14:10:22.395Z,1.80
2023-05-10T14:15:26.111Z,1.60
2023-05-10T14:20:31.394Z,1.80
2023-05-10T14:25:35.186Z,1.80
2023-05-10T14:30:38.795Z,1.70
2023-05-10T14:35:44.124Z,1.50
2023-05-10T14:40:47.741Z,1.70
2023-05-10T14:45:51.363Z,1.42
2023-05-10T14:50:56.586Z,1.70
2023-05-10T14:56:00.206Z,1.40
2023-05-10T15:01:03.823Z,1.33
2023-05-10T15:06:10.505Z,1.60
2023-05-10T15:11:14.205Z,1.90
2023-05-10T15:16:17.851Z,1.90
2023-05-10T15:21:25.293Z,1.50
2023-05-10T15:26:28.916Z,1.70
2023-05-10T15:31:32.577Z,1.60
2023-05-10T15:36:37.867Z,1.63
2023-05-10T15:41:41.534Z,1.90
2023-05-10T15:46:45.155Z,1.58
2023-05-10T15:51:50.479Z,1.60
2023-05-10T15:56:54.752Z,1.37
2023-05-10T16:01:58.841Z,1.70
2023-05-10T16:07:04.180Z,1.65
2023-05-10T16:12:08.823Z,1.60
2023-05-10T16:17:12.537Z,2.13
2023-05-10T16:22:17.877Z,1.70
2023-05-10T16:27:21.524Z,1.80
2023-05-10T16:32:25.192Z,1.70
2023-05-10T16:37:30.468Z,1.85
2023-05-10T16:42:34.097Z,1.80
2023-05-10T16:47:39.002Z,1.67
2023-05-10T16:52:44.344Z,1.70
2023-05-10T16:57:47.993Z,1.97
2023-05-10T17:02:51.668Z,2.03
2023-05-10T17:07:57.043Z,1.65
2023-05-10T17:13:00.669Z,2.20
2023-05-10T17:18:04.349Z,2.38
2023-05-10T17:23:09.661Z,3.22
2023-05-10T17:28:13.257Z,3.70
2023-05-10T17:33:16.932Z,4.03
2023-05-10T17:38:22.169Z,4.50
2023-05-10T17:43:25.810Z,3.40
2023-05-10T17:48:29.413Z,4.38
2023-05-10T17:53:35.301Z,6.28
2023-05-10T18:03:41.772Z,4.55
2023-05-10T18:08:47.080Z,3.50
2023-05-10T18:13:50.722Z,2.70
2023-05-10T18:18:54.352Z,2.40
2023-05-10T18:23:59.691Z,3.08
2023-05-10T18:29:03.314Z,2.73
2023-05-10T18:34:07.006Z,2.90
2023-05-10T18:39:13.354Z,2.65
2023-05-10T18:44:16.973Z,3.00
2023-05-10T18:49:20.638Z,2.70
2023-05-10T18:54:25.957Z,2.25
2023-05-10T18:59:29.568Z,2.50
2023-05-10T19:04:33.372Z,2.70
2023-05-10T19:09:38.689Z,2.58
2023-05-10T19:14:42.349Z,2.47
2023-05-10T19:19:46.253Z,2.25
2023-05-10T19:24:51.645Z,1.80
2023-05-10T19:29:56.505Z,2.30
2023-05-10T19:35:00.125Z,2.33
2023-05-10T19:40:06.017Z,1.95
2023-05-10T19:45:10.904Z,1.88
2023-05-10T19:50:14.560Z,2.23
2023-05-10T19:55:28.145Z,1.90
2023-05-10T20:00:31.998Z,2.05
2023-05-10T20:05:35.690Z,1.88
2023-05-10T20:10:40.948Z,2.20
2023-05-10T20:15:44.763Z,2.30
2023-05-10T20:20:48.586Z,1.65
2023-05-10T20:25:54.126Z,1.80
2023-05-10T20:30:58.569Z,1.65
2023-05-10T20:36:02.192Z,2.00
2023-05-10T20:41:07.484Z,1.73
2023-05-10T20:46:12.080Z,1.63
2023-05-10T20:51:15.997Z,1.77
2023-05-10T20:56:21.487Z,1.65
2023-05-10T21:06:28.465Z,1.70
2023-05-10T21:11:36.179Z,2.08
2023-05-10T21:16:40.221Z,1.60
2023-05-10T21:21:44.219Z,1.50
2023-05-10T21:26:50.848Z,1.70
2023-05-10T21:31:54.520Z,1.75
2023-05-10T21:36:58.229Z,1.80
2023-05-10T21:42:03.850Z,1.63
2023-05-10T21:47:07.638Z,1.48
2023-05-10T21:52:11.265Z,1.77
2023-05-10T21:57:16.572Z,1.65
2023-05-10T22:02:20.218Z,1.33
2023-05-10T22:07:23.889Z,1.45
2023-05-10T22:12:29.218Z,1.70
2023-05-10T22:17:32.889Z,1.58
2023-05-10T22:22:36.575Z,1.77
2023-05-10T22:27:41.931Z,1.48
2023-05-10T22:32:45.657Z,1.67
2023-05-10T22:37:49.290Z,1.30
2023-05-10T22:42:54.528Z,1.60
2023-05-10T22:47:58.149Z,1.55
2023-05-10T22:53:01.787Z,1.70
2023-05-10T22:58:07.536Z,1.63
2023-05-10T23:03:11.190Z,1.65
2023-05-10T23:08:15.570Z,1.98
2023-05-10T23:13:21.757Z,1.67
2023-05-10T23:18:25.361Z,2.05
2023-05-10T23:23:29.031Z,2.00
2023-05-10T23:28:34.325Z,2.00
2023-05-10T23:33:37.923Z,1.73
2023-05-10T23:38:41.533Z,1.80
2023-05-10T23:43:46.743Z,1.63
2023-05-10T23:48:50.381Z,1.73
2023-05-10T23:53:54.001Z,1.70
2023-05-10T23:58:59.237Z,1.63
